Time;durP1;ratioP1;P1;durP2;ratioP2;P2;SDS_P1;SDS_P2;PMS_P1;PMS_P2;Temp;Humidity;BMP_temperature;BMP_pressure;BME280_temperature;BME280_humidity;BME280_pressure;Samples;Min_cycle;Max_cycle;Signal;HPM_P1;HPM_P2
2022/03/15 01:30:15;;;;;;;14.05;3.97;;;;;;;;;;5090936;27;20407;-74
2022/03/15 01:32:41;;;;;;;11.23;3.80;;;;;;;;;;5081346;28;20020;-74
2022/03/15 01:35:08;;;;;;;14.18;3.67;;;;;;;;;;5089066;28;20038;-73
2022/03/15 01:37:34;;;;;;;11.10;3.35;;;;;;;;;;5094150;28;20073;-73
2022/03/15 01:40:00;;;;;;;8.90;3.83;;;;;;;;;;5094359;28;20020;-74
2022/03/15 01:42:26;;;;;;;10.80;3.38;;;;;;;;;;5085082;28;20043;-72
2022/03/15 01:44:52;;;;;;;9.02;3.72;;;;;;;;;;5081781;28;20040;-77
2022/03/15 01:47:19;;;;;;;12.38;4.20;;;;;;;;;;5082029;28;20035;-73
2022/03/15 01:49:45;;;;;;;15.38;3.83;;;;;;;;;;5081216;28;20042;-73
2022/03/15 01:52:15;;;;;;;16.70;3.20;;;;;;;;;;5092806;28;20502;-74
2022/03/15 01:54:42;;;;;;;9.45;3.38;;;;;;;;;;5088520;28;20111;-73
2022/03/15 01:57:08;;;;;;;11.68;3.97;;;;;;;;;;5092439;28;20036;-73
2022/03/15 01:59:35;;;;;;;10.27;3.45;;;;;;;;;;5087785;28;20090;-74
2022/03/15 02:02:01;;;;;;;13.43;4.25;;;;;;;;;;5090041;28;20107;-73
2022/03/15 02:04:28;;;;;;;6.15;2.75;;;;;;;;;;5089226;28;20024;-74
2022/03/15 02:07:03;;;;;;;12.10;3.70;;;;;;;;;;5084654;28;20064;-74
2022/03/15 02:09:29;;;;;;;7.88;3.70;;;;;;;;;;5087052;28;20028;-73
2022/03/15 02:11:55;;;;;;;7.30;3.50;;;;;;;;;;5086257;28;20032;-73
2022/03/15 02:14:21;;;;;;;8.63;3.45;;;;;;;;;;5081937;28;20040;-74
2022/03/15 02:16:48;;;;;;;7.65;3.00;;;;;;;;;;5086098;28;20032;-74
2022/03/15 02:19:14;;;;;;;7.65;2.83;;;;;;;;;;5080538;28;20028;-75
2022/03/15 02:21:40;;;;;;;6.53;3.00;;;;;;;;;;5089703;28;20370;-73
2022/03/15 02:24:06;;;;;;;9.15;3.00;;;;;;;;;;5097229;28;20067;-74
2022/03/15 02:26:33;;;;;;;7.60;2.92;;;;;;;;;;5091107;28;20085;-73
2022/03/15 02:28:59;;;;;;;10.48;3.40;;;;;;;;;;5086708;28;20051;-74
2022/03/15 02:31:25;;;;;;;6.35;3.65;;;;;;;;;;5088016;28;20033;-73
2022/03/15 02:33:51;;;;;;;8.07;3.67;;;;;;;;;;5083649;28;20035;-73
2022/03/15 02:36:18;;;;;;;12.52;3.55;;;;;;;;;;5086633;28;20032;-74
2022/03/15 02:38:44;;;;;;;9.00;3.20;;;;;;;;;;5084961;28;20024;-73
2022/03/15 02:41:10;;;;;;;9.48;3.10;;;;;;;;;;5071677;28;20070;-73
2022/03/15 02:43:36;;;;;;;5.90;3.20;;;;;;;;;;5074300;28;20637;-74
2022/03/15 02:46:02;;;;;;;8.93;3.28;;;;;;;;;;5074864;28;20112;-73
2022/03/15 02:48:28;;;;;;;13.75;4.75;;;;;;;;;;5074939;28;20063;-74
2022/03/15 02:50:58;;;;;;;8.13;3.10;;;;;;;;;;5075037;28;20060;-73
2022/03/15 02:53:25;;;;;;;5.95;2.92;;;;;;;;;;5073710;28;20075;-73
2022/03/15 02:55:51;;;;;;;9.38;3.47;;;;;;;;;;5075408;28;20036;-73
2022/03/15 02:58:19;;;;;;;7.43;3.03;;;;;;;;;;5081242;28;20054;-73
2022/03/15 03:00:45;;;;;;;10.50;3.28;;;;;;;;;;5084262;28;20040;-73
2022/03/15 03:03:11;;;;;;;7.63;3.03;;;;;;;;;;5078197;28;20046;-72
2022/03/15 03:05:39;;;;;;;11.00;3.22;;;;;;;;;;5087650;28;20063;-79
2022/03/15 03:08:05;;;;;;;9.80;3.40;;;;;;;;;;5099841;28;20273;-77
2022/03/15 03:10:35;;;;;;;9.68;3.50;;;;;;;;;;5100438;28;20088;-78
2022/03/15 03:13:01;;;;;;;11.45;3.70;;;;;;;;;;5102501;28;20104;-79
2022/03/15 03:15:27;;;;;;;7.07;2.90;;;;;;;;;;5094616;28;20012;-78
2022/03/15 03:17:54;;;;;;;8.88;3.53;;;;;;;;;;5090058;28;20013;-78
2022/03/15 03:20:21;;;;;;;7.45;3.05;;;;;;;;;;5102096;28;20035;-78
2022/03/15 03:22:49;;;;;;;9.57;3.28;;;;;;;;;;5098595;28;20025;-80
2022/03/15 03:25:18;;;;;;;11.55;3.42;;;;;;;;;;5100685;28;20028;-77
2022/03/15 03:27:47;;;;;;;6.47;3.17;;;;;;;;;;5084119;28;19997;-77
2022/03/15 03:30:15;;;;;;;6.68;3.03;;;;;;;;;;5099466;28;20044;-77
2022/03/15 03:32:45;;;;;;;10.43;3.42;;;;;;;;;;5098932;28;20039;-78
2022/03/15 03:35:25;;;;;;;11.45;3.03;;;;;;;;;;5093791;28;20059;-79
2022/03/15 03:37:54;;;;;;;10.43;3.45;;;;;;;;;;5087819;28;20029;-79
2022/03/15 03:40:20;;;;;;;7.93;3.35;;;;;;;;;;5091181;28;20097;-79
2022/03/15 03:42:49;;;;;;;8.27;3.15;;;;;;;;;;5087225;28;20047;-78
2022/03/15 03:45:18;;;;;;;8.68;2.95;;;;;;;;;;5090555;28;20538;-78
2022/03/15 03:47:45;;;;;;;6.63;3.08;;;;;;;;;;5105418;28;20042;-78
2022/03/15 03:50:18;;;;;;;9.98;3.20;;;;;;;;;;5081583;28;20036;-77
2022/03/15 03:52:44;;;;;;;13.68;4.22;;;;;;;;;;5057289;28;20029;-76
2022/03/15 03:55:11;;;;;;;9.30;3.72;;;;;;;;;;5079938;28;20031;-76
2022/03/15 03:57:38;;;;;;;8.52;3.50;;;;;;;;;;5080020;28;20016;-77
2022/03/15 04:00:07;;;;;;;19.08;8.55;;;;;;;;;;5083753;28;20028;-79
2022/03/15 04:02:33;;;;;;;9.20;3.10;;;;;;;;;;5078051;28;20095;-76
2022/03/15 04:04:59;;;;;;;11.40;3.70;;;;;;;;;;5080360;28;20703;-80
2022/03/15 04:07:26;;;;;;;9.00;3.53;;;;;;;;;;5081530;28;20031;-78
2022/03/15 04:09:52;;;;;;;5.63;3.00;;;;;;;;;;5083594;28;20459;-77
2022/03/15 04:12:21;;;;;;;9.02;3.05;;;;;;;;;;5077839;28;20480;-79
2022/03/15 04:14:48;;;;;;;8.05;2.75;;;;;;;;;;5090348;28;20024;-77
2022/03/15 04:17:15;;;;;;;8.82;2.83;;;;;;;;;;5087184;28;20103;-77
2022/03/15 04:19:41;;;;;;;7.75;2.85;;;;;;;;;;5072145;28;20028;-78
2022/03/15 04:22:07;;;;;;;5.80;2.47;;;;;;;;;;5093464;28;20028;-77
2022/03/15 04:24:33;;;;;;;7.57;3.30;;;;;;;;;;5077037;28;20469;-78
2022/03/15 04:27:00;;;;;;;9.80;3.78;;;;;;;;;;5090133;28;20455;-81
2022/03/15 04:29:26;;;;;;;7.25;3.58;;;;;;;;;;5083548;28;20090;-75
2022/03/15 04:31:52;;;;;;;6.70;2.67;;;;;;;;;;5080868;28;20029;-76
2022/03/15 04:34:18;;;;;;;7.72;3.58;;;;;;;;;;5086033;28;20032;-76
2022/03/15 04:36:45;;;;;;;8.00;3.22;;;;;;;;;;5074396;28;20108;-76
2022/03/15 04:39:11;;;;;;;10.88;4.60;;;;;;;;;;5079759;28;20477;-78
2022/03/15 04:41:37;;;;;;;9.35;3.10;;;;;;;;;;5079009;28;20027;-76
2022/03/15 04:44:04;;;;;;;10.88;3.15;;;;;;;;;;5080623;28;20086;-73
2022/03/15 04:46:30;;;;;;;8.88;2.70;;;;;;;;;;5088299;28;20020;-74
2022/03/15 04:48:56;;;;;;;12.15;3.47;;;;;;;;;;5075201;28;20404;-74
2022/03/15 04:51:24;;;;;;;10.00;3.00;;;;;;;;;;5083230;28;20030;-74
2022/03/15 04:53:50;;;;;;;6.57;2.63;;;;;;;;;;5091569;28;20040;-75
2022/03/15 04:56:16;;;;;;;11.38;2.85;;;;;;;;;;5078134;28;20074;-77
2022/03/15 04:58:42;;;;;;;5.22;2.47;;;;;;;;;;5069847;28;20382;-77
2022/03/15 05:01:08;;;;;;;9.20;2.65;;;;;;;;;;5072024;28;20028;-76
2022/03/15 05:03:35;;;;;;;9.13;3.00;;;;;;;;;;5070820;28;20523;-76
2022/03/15 05:06:01;;;;;;;11.90;3.47;;;;;;;;;;5072269;28;20025;-76
2022/03/15 05:08:27;;;;;;;6.72;3.03;;;;;;;;;;5071692;28;20024;-78
2022/03/15 05:11:06;;;;;;;13.82;3.15;;;;;;;;;;5072722;28;20036;-77
2022/03/15 05:13:35;;;;;;;9.75;2.83;;;;;;;;;;5070685;28;20483;-77
2022/03/15 05:16:01;;;;;;;8.13;2.85;;;;;;;;;;5082900;28;20016;-78
2022/03/15 05:18:27;;;;;;;10.38;3.33;;;;;;;;;;5092043;28;20028;-77
2022/03/15 05:20:53;;;;;;;9.30;3.25;;;;;;;;;;5093029;28;20463;-78
2022/03/15 05:23:19;;;;;;;7.07;3.45;;;;;;;;;;5092229;28;20078;-76
2022/03/15 05:25:45;;;;;;;23.08;4.13;;;;;;;;;;5083897;28;20503;-77
2022/03/15 05:28:12;;;;;;;6.57;3.40;;;;;;;;;;5072815;28;20032;-78
2022/03/15 05:30:38;;;;;;;13.73;3.53;;;;;;;;;;5071988;28;20040;-77
2022/03/15 05:33:04;;;;;;;10.30;3.13;;;;;;;;;;5072536;28;20016;-77
2022/03/15 05:35:30;;;;;;;12.85;3.63;;;;;;;;;;5071887;28;20024;-78
2022/03/15 05:37:57;;;;;;;8.98;2.83;;;;;;;;;;5072578;28;20025;-77
2022/03/15 05:40:25;;;;;;;9.13;3.70;;;;;;;;;;5072652;28;20033;-78
2022/03/15 05:42:51;;;;;;;6.97;3.17;;;;;;;;;;5071924;28;20028;-79
2022/03/15 05:45:17;;;;;;;14.25;3.20;;;;;;;;;;5072284;28;20033;-78
2022/03/15 05:47:43;;;;;;;13.02;3.78;;;;;;;;;;5071488;28;20500;-78
2022/03/15 05:50:09;;;;;;;8.35;3.58;;;;;;;;;;5072682;28;20110;-77
2022/03/15 05:52:35;;;;;;;6.63;3.15;;;;;;;;;;5071789;28;20027;-78
2022/03/15 05:55:01;;;;;;;8.75;3.15;;;;;;;;;;5070652;28;20025;-78
2022/03/15 05:57:27;;;;;;;8.88;3.25;;;;;;;;;;5072702;28;20020;-77
2022/03/15 05:59:53;;;;;;;10.43;3.65;;;;;;;;;;5070431;28;20139;-78
2022/03/15 06:02:19;;;;;;;7.50;3.58;;;;;;;;;;5072746;28;20098;-77
2022/03/15 06:04:45;;;;;;;6.28;3.42;;;;;;;;;;5071995;28;20497;-78
2022/03/15 06:07:11;;;;;;;11.32;3.70;;;;;;;;;;5072273;28;20029;-79
2022/03/15 06:09:37;;;;;;;10.48;4.05;;;;;;;;;;5071510;28;20060;-80
2022/03/15 06:12:04;;;;;;;10.52;4.03;;;;;;;;;;5071297;28;20437;-79
2022/03/15 06:14:30;;;;;;;8.93;3.90;;;;;;;;;;5072075;28;20033;-79
2022/03/15 06:16:56;;;;;;;7.18;3.45;;;;;;;;;;5075346;28;20112;-76
2022/03/15 06:19:22;;;;;;;7.38;3.58;;;;;;;;;;5075946;28;20132;-76
2022/03/15 06:21:48;;;;;;;9.48;3.90;;;;;;;;;;5095244;28;20070;-77
2022/03/15 06:24:15;;;;;;;7.13;3.95;;;;;;;;;;5078576;28;20029;-79
2022/03/15 06:26:42;;;;;;;7.78;3.80;;;;;;;;;;5075999;28;20469;-79
2022/03/15 06:29:08;;;;;;;7.70;3.20;;;;;;;;;;5075247;28;20054;-78
2022/03/15 06:31:35;;;;;;;16.70;4.35;;;;;;;;;;5075418;28;20111;-77
2022/03/15 06:34:04;;;;;;;8.48;3.60;;;;;;;;;;5075186;28;20033;-76
2022/03/15 06:36:30;;;;;;;8.38;3.42;;;;;;;;;;5075433;28;20111;-77
2022/03/15 06:38:57;;;;;;;8.35;3.60;;;;;;;;;;5075577;28;20029;-78
2022/03/15 06:41:23;;;;;;;8.18;3.80;;;;;;;;;;5075027;28;20060;-77
2022/03/15 06:43:49;;;;;;;11.10;3.67;;;;;;;;;;5075956;28;20032;-77
2022/03/15 06:46:15;;;;;;;10.45;3.65;;;;;;;;;;5075388;28;20500;-76
2022/03/15 06:48:42;;;;;;;12.25;4.03;;;;;;;;;;5074497;28;20036;-78
2022/03/15 06:51:08;;;;;;;10.90;3.53;;;;;;;;;;5074506;28;20031;-76
2022/03/15 06:53:34;;;;;;;11.43;3.50;;;;;;;;;;5076307;28;20429;-78
2022/03/15 06:56:00;;;;;;;9.10;3.50;;;;;;;;;;5075920;28;20066;-77
2022/03/15 06:58:26;;;;;;;9.95;3.55;;;;;;;;;;5075497;28;20222;-78
2022/03/15 07:00:54;;;;;;;7.30;3.72;;;;;;;;;;5074258;28;20157;-76
2022/03/15 07:03:20;;;;;;;6.13;3.47;;;;;;;;;;5075429;28;20062;-77
2022/03/15 07:05:46;;;;;;;8.77;3.70;;;;;;;;;;5075241;28;20044;-77
2022/03/15 07:08:13;;;;;;;7.57;3.67;;;;;;;;;;5074022;28;20465;-76
2022/03/15 07:10:39;;;;;;;7.80;3.75;;;;;;;;;;5074720;28;20029;-77
2022/03/15 07:13:05;;;;;;;9.35;3.70;;;;;;;;;;5058020;28;20058;-80
2022/03/15 07:15:31;;;;;;;8.60;3.22;;;;;;;;;;5055310;28;20393;-79
2022/03/15 07:17:58;;;;;;;8.40;3.40;;;;;;;;;;5069292;28;20469;-78
2022/03/15 07:20:25;;;;;;;7.00;3.35;;;;;;;;;;5074336;28;20477;-78
2022/03/15 07:22:52;;;;;;;10.57;4.22;;;;;;;;;;5074675;28;20024;-78
2022/03/15 07:25:19;;;;;;;11.95;3.50;;;;;;;;;;5072382;28;20427;-75
2022/03/15 07:27:45;;;;;;;7.65;3.30;;;;;;;;;;5073907;28;20250;-75
2022/03/15 07:30:12;;;;;;;8.32;3.20;;;;;;;;;;5073862;28;20401;-75
2022/03/15 07:32:38;;;;;;;10.32;3.47;;;;;;;;;;5066341;28;20031;-76
2022/03/15 07:35:04;;;;;;;13.77;3.83;;;;;;;;;;5074679;28;20100;-76
2022/03/15 07:37:30;;;;;;;13.13;4.13;;;;;;;;;;5074856;28;20021;-76
2022/03/15 07:39:56;;;;;;;16.00;3.78;;;;;;;;;;5073895;28;20040;-75
2022/03/15 07:42:23;;;;;;;15.90;3.97;;;;;;;;;;5073442;28;20039;-74
2022/03/15 07:44:49;;;;;;;6.43;3.70;;;;;;;;;;5073520;28;20013;-74
2022/03/15 07:47:15;;;;;;;7.72;3.45;;;;;;;;;;5084584;28;20078;-76
2022/03/15 07:49:42;;;;;;;11.40;3.47;;;;;;;;;;5090809;28;20489;-74
2022/03/15 07:52:09;;;;;;;12.25;4.18;;;;;;;;;;5072878;28;20028;-75
2022/03/15 07:54:35;;;;;;;10.45;3.17;;;;;;;;;;5074155;28;20107;-73
2022/03/15 07:57:01;;;;;;;7.75;3.30;;;;;;;;;;5072977;28;20393;-74
2022/03/15 07:59:28;;;;;;;6.93;3.88;;;;;;;;;;5073098;28;20036;-73
2022/03/15 08:01:54;;;;;;;19.98;3.90;;;;;;;;;;5073056;28;20389;-74
2022/03/15 08:04:20;;;;;;;7.78;3.50;;;;;;;;;;5071715;28;20112;-75
2022/03/15 08:06:47;;;;;;;6.65;3.95;;;;;;;;;;5065529;28;20032;-74
2022/03/15 08:09:14;;;;;;;7.53;3.38;;;;;;;;;;5075337;28;20040;-74
2022/03/15 08:11:41;;;;;;;8.57;3.13;;;;;;;;;;5078063;28;20452;-75
2022/03/15 08:14:08;;;;;;;9.00;3.30;;;;;;;;;;5073053;28;20112;-74
2022/03/15 08:16:34;;;;;;;12.90;3.97;;;;;;;;;;5073263;28;20392;-74
2022/03/15 08:19:00;;;;;;;7.30;3.50;;;;;;;;;;5073243;28;20074;-75
2022/03/15 08:21:26;;;;;;;10.85;3.40;;;;;;;;;;5073490;28;20390;-75
2022/03/15 08:23:53;;;;;;;9.18;3.88;;;;;;;;;;5090612;28;20046;-74
2022/03/15 08:26:19;;;;;;;9.10;3.53;;;;;;;;;;5092329;28;20544;-73
2022/03/15 08:28:48;;;;;;;9.48;4.03;;;;;;;;;;5077328;28;20056;-74
2022/03/15 08:31:14;;;;;;;7.07;3.53;;;;;;;;;;5072733;28;20044;-74
2022/03/15 08:33:41;;;;;;;9.40;3.47;;;;;;;;;;5064139;28;20094;-73
2022/03/15 08:36:07;;;;;;;9.85;3.25;;;;;;;;;;5072453;28;20039;-75
2022/03/15 08:38:34;;;;;;;4.88;2.83;;;;;;;;;;5074394;28;20020;-74
2022/03/15 08:41:01;;;;;;;7.15;3.28;;;;;;;;;;5078925;28;20111;-76
2022/03/15 08:43:27;;;;;;;10.75;2.00;;;;;;;;;;5079742;28;20012;-75
2022/03/15 08:45:53;;;;;;;3.08;1.80;;;;;;;;;;5074189;28;20385;-74
2022/03/15 08:48:19;;;;;;;5.78;2.05;;;;;;;;;;5072085;28;20048;-75
2022/03/15 08:50:45;;;;;;;4.75;1.83;;;;;;;;;;5070374;28;20032;-74
2022/03/15 08:53:12;;;;;;;4.35;1.70;;;;;;;;;;5071957;28;20025;-75
2022/03/15 08:55:38;;;;;;;3.15;2.00;;;;;;;;;;5071516;28;20116;-73
2022/03/15 08:58:04;;;;;;;2.47;1.65;;;;;;;;;;5065505;28;20017;-74
2022/03/15 09:00:30;;;;;;;3.45;1.75;;;;;;;;;;5088298;28;20085;-76
2022/03/15 09:02:56;;;;;;;2.72;1.70;;;;;;;;;;5092912;28;20028;-75
2022/03/15 09:05:22;;;;;;;3.40;1.40;;;;;;;;;;5092750;28;20081;-74
2022/03/15 09:07:53;;;;;;;3.08;1.35;;;;;;;;;;5087793;28;20111;-75
2022/03/15 09:10:23;;;;;;;2.25;1.42;;;;;;;;;;5079289;28;20392;-73
2022/03/15 09:12:50;;;;;;;2.80;1.23;;;;;;;;;;5080769;28;20058;-73
2022/03/15 09:15:16;;;;;;;2.25;1.75;;;;;;;;;;5083022;28;20273;-75
2022/03/15 09:17:43;;;;;;;4.35;1.88;;;;;;;;;;5072334;28;20069;-73
2022/03/15 09:20:10;;;;;;;2.95;1.85;;;;;;;;;;5071646;28;20024;-73
2022/03/15 09:22:36;;;;;;;3.78;1.95;;;;;;;;;;5079955;28;20028;-75
2022/03/15 09:25:03;;;;;;;3.22;1.80;;;;;;;;;;5071862;28;20461;-74
2022/03/15 09:27:29;;;;;;;4.78;2.10;;;;;;;;;;5072388;28;20033;-73
2022/03/15 09:29:55;;;;;;;3.17;2.17;;;;;;;;;;5071361;28;20072;-74
2022/03/15 09:32:22;;;;;;;2.92;1.92;;;;;;;;;;5072301;28;20028;-74
2022/03/15 09:34:48;;;;;;;4.18;2.10;;;;;;;;;;5075682;28;20444;-76
2022/03/15 09:37:14;;;;;;;3.85;2.10;;;;;;;;;;5076392;28;20481;-75
2022/03/15 09:39:41;;;;;;;5.88;2.15;;;;;;;;;;5080023;28;20043;-76
2022/03/15 09:42:08;;;;;;;4.07;2.10;;;;;;;;;;5076082;28;20044;-77
2022/03/15 09:44:35;;;;;;;3.25;1.65;;;;;;;;;;5072185;28;20112;-74
2022/03/15 09:47:02;;;;;;;2.58;1.17;;;;;;;;;;5071166;28;20030;-77
2022/03/15 09:49:28;;;;;;;2.35;1.10;;;;;;;;;;5072484;28;20393;-75
2022/03/15 09:51:55;;;;;;;2.47;1.40;;;;;;;;;;5077591;28;20476;-76
2022/03/15 09:54:22;;;;;;;1.83;1.40;;;;;;;;;;5079685;28;20046;-74
2022/03/15 09:56:49;;;;;;;3.38;1.55;;;;;;;;;;5087947;28;20056;-77
2022/03/15 09:59:19;;;;;;;2.92;1.55;;;;;;;;;;5079170;28;20048;-73
2022/03/15 10:01:50;;;;;;;2.72;1.88;;;;;;;;;;5077429;28;20024;-79
2022/03/15 10:04:16;;;;;;;2.80;1.80;;;;;;;;;;5075026;28;20696;-76
2022/03/15 10:06:42;;;;;;;2.28;1.30;;;;;;;;;;5079434;28;20074;-83
2022/03/15 10:09:09;;;;;;;2.22;1.70;;;;;;;;;;5073225;28;20048;-75
2022/03/15 10:11:37;;;;;;;2.28;1.45;;;;;;;;;;5072162;28;20032;-78
2022/03/15 10:14:04;;;;;;;4.70;1.60;;;;;;;;;;5071098;28;20025;-76
2022/03/15 10:16:32;;;;;;;3.28;1.70;;;;;;;;;;5068793;28;20027;-75
2022/03/15 10:18:58;;;;;;;4.25;1.33;;;;;;;;;;5075496;28;20474;-75
2022/03/15 10:21:25;;;;;;;5.05;1.50;;;;;;;;;;5068659;28;20021;-77
2022/03/15 10:23:55;;;;;;;3.58;1.40;;;;;;;;;;5068392;28;20025;-75
2022/03/15 10:26:25;;;;;;;2.15;1.17;;;;;;;;;;5075476;28;20058;-75
2022/03/15 10:28:53;;;;;;;3.47;1.60;;;;;;;;;;5071414;28;20051;-75
2022/03/15 10:31:22;;;;;;;3.05;1.30;;;;;;;;;;5076570;28;20032;-74
2022/03/15 10:33:50;;;;;;;1.20;1.10;;;;;;;;;;5073379;28;20104;-73
2022/03/15 10:36:17;;;;;;;2.30;1.23;;;;;;;;;;5069273;28;20079;-73
2022/03/15 10:38:51;;;;;;;1.55;0.90;;;;;;;;;;5072465;28;20025;-72
2022/03/15 10:41:17;;;;;;;1.58;0.90;;;;;;;;;;5066874;28;20016;-74
2022/03/15 10:43:43;;;;;;;1.45;1.08;;;;;;;;;;5076721;28;20028;-73
2022/03/15 10:46:10;;;;;;;1.58;1.10;;;;;;;;;;5077342;28;20024;-74
2022/03/15 10:48:37;;;;;;;1.30;0.95;;;;;;;;;;5073479;28;20173;-73
2022/03/15 10:51:09;;;;;;;3.03;1.70;;;;;;;;;;5083744;28;20264;-73
2022/03/15 10:53:37;;;;;;;0.90;0.80;;;;;;;;;;5077396;28;20024;-73
2022/03/15 10:56:22;;;;;;;1.30;0.80;;;;;;;;;;5072604;28;20032;-76
2022/03/15 10:58:50;;;;;;;1.33;0.90;;;;;;;;;;5072866;28;20025;-75
2022/03/15 11:01:17;;;;;;;2.10;0.88;;;;;;;;;;5079438;28;20099;-74
2022/03/15 11:03:56;;;;;;;0.80;0.65;;;;;;;;;;5071325;28;20032;-72
2022/03/15 11:06:32;;;;;;;1.65;1.00;;;;;;;;;;5080305;28;20048;-74
2022/03/15 11:09:01;;;;;;;1.27;1.10;;;;;;;;;;5075461;28;20473;-73
2022/03/15 11:11:28;;;;;;;2.00;1.05;;;;;;;;;;5077711;28;20032;-75
2022/03/15 11:14:05;;;;;;;1.45;1.10;;;;;;;;;;5074218;28;20028;-72
2022/03/15 11:16:32;;;;;;;2.75;1.20;;;;;;;;;;5076103;28;20117;-73
2022/03/15 11:19:00;;;;;;;1.10;1.00;;;;;;;;;;5065827;28;20044;-76
2022/03/15 11:21:27;;;;;;;3.92;1.08;;;;;;;;;;5078256;28;20400;-75
2022/03/15 11:23:57;;;;;;;3.17;1.10;;;;;;;;;;5079469;28;20165;-73
2022/03/15 11:26:26;;;;;;;3.28;1.50;;;;;;;;;;5083147;28;20031;-75
2022/03/15 11:28:52;;;;;;;10.65;1.80;;;;;;;;;;5084042;28;20506;-74
2022/03/15 11:31:19;;;;;;;2.67;1.50;;;;;;;;;;5074841;28;20496;-75
2022/03/15 11:33:47;;;;;;;4.22;1.20;;;;;;;;;;5081051;28;20024;-75
2022/03/15 11:36:13;;;;;;;2.10;1.50;;;;;;;;;;5091393;28;20024;-74
2022/03/15 11:38:41;;;;;;;1.45;1.33;;;;;;;;;;5081839;28;20024;-74
2022/03/15 11:41:10;;;;;;;1.83;1.40;;;;;;;;;;5076678;28;20028;-75
2022/03/15 11:44:00;;;;;;;3.10;1.38;;;;;;;;;;5074137;28;20024;-74
2022/03/15 11:46:34;;;;;;;1.58;1.27;;;;;;;;;;5080752;28;20097;-76
2022/03/15 11:49:25;;;;;;;1.92;1.23;;;;;;;;;;5079993;28;20032;-75
2022/03/15 11:51:51;;;;;;;1.98;1.08;;;;;;;;;;5068886;28;20020;-76
2022/03/15 11:54:36;;;;;;;2.20;0.80;;;;;;;;;;5081029;28;20435;-75
2022/03/15 11:57:21;;;;;;;2.72;1.08;;;;;;;;;;5077053;28;20033;-75
2022/03/15 11:59:49;;;;;;;3.22;1.10;;;;;;;;;;5084969;28;20065;-76
2022/03/15 12:02:27;;;;;;;1.25;1.00;;;;;;;;;;5079390;28;20035;-76
2022/03/15 12:04:53;;;;;;;2.63;1.20;;;;;;;;;;5074838;28;20064;-73
2022/03/15 12:07:36;;;;;;;2.42;1.00;;;;;;;;;;5077428;28;20114;-74
2022/03/15 12:10:08;;;;;;;1.45;1.25;;;;;;;;;;5079158;28;20052;-74
2022/03/15 12:12:34;;;;;;;1.55;1.10;;;;;;;;;;5074708;28;20021;-75
2022/03/15 12:15:12;;;;;;;3.22;1.52;;;;;;;;;;5071219;28;20028;-76
2022/03/15 12:17:41;;;;;;;2.55;1.42;;;;;;;;;;5088994;28;20015;-75
2022/03/15 12:20:16;;;;;;;1.27;0.80;;;;;;;;;;5076386;28;20054;-73
2022/03/15 12:22:43;;;;;;;2.65;1.10;;;;;;;;;;5071842;28;20617;-76
2022/03/15 12:25:18;;;;;;;4.13;1.38;;;;;;;;;;5070887;28;20047;-79
2022/03/15 12:27:49;;;;;;;1.35;0.90;;;;;;;;;;5078706;28;20596;-73
2022/03/15 12:30:36;;;;;;;3.50;2.22;;;;;;;;;;5071798;28;20051;-73
2022/03/15 12:33:02;;;;;;;1.73;1.23;;;;;;;;;;5065599;28;20032;-74
2022/03/15 12:35:29;;;;;;;2.63;1.55;;;;;;;;;;5070277;28;20158;-74
2022/03/15 12:38:24;;;;;;;6.82;3.40;;;;;;;;;;5064469;28;20066;-73
2022/03/15 12:40:51;;;;;;;5.82;3.05;;;;;;;;;;5056988;28;20075;-74
2022/03/15 12:43:23;;;;;;;1.10;0.90;;;;;;;;;;5065433;28;20016;-75
2022/03/15 12:45:50;;;;;;;1.40;0.95;;;;;;;;;;5062223;28;20100;-74
2022/03/15 12:48:33;;;;;;;1.75;1.00;;;;;;;;;;5066933;28;20104;-73
2022/03/15 12:51:01;;;;;;;1.05;0.85;;;;;;;;;;5064381;28;20441;-74
2022/03/15 12:53:43;;;;;;;1.05;0.80;;;;;;;;;;5071596;28;20073;-74
2022/03/15 12:56:10;;;;;;;1.70;1.00;;;;;;;;;;5071958;28;20039;-75
2022/03/15 12:58:38;;;;;;;1.33;1.08;;;;;;;;;;5070010;28;20056;-74
2022/03/15 13:01:08;;;;;;;0.88;0.80;;;;;;;;;;5068307;28;20099;-74
2022/03/15 13:03:35;;;;;;;1.20;1.00;;;;;;;;;;5071988;28;20063;-73
2022/03/15 13:06:03;;;;;;;1.08;0.80;;;;;;;;;;5073744;28;20032;-71
2022/03/15 13:08:29;;;;;;;0.90;0.70;;;;;;;;;;5080488;28;20513;-73
2022/03/15 13:10:58;;;;;;;1.80;0.98;;;;;;;;;;5072465;28;20822;-72
2022/03/15 13:13:27;;;;;;;1.83;0.90;;;;;;;;;;5068789;28;20059;-73
2022/03/15 13:16:09;;;;;;;1.35;0.95;;;;;;;;;;5073530;28;20107;-73
2022/03/15 13:18:35;;;;;;;1.13;0.90;;;;;;;;;;5073673;28;20020;-74
2022/03/15 13:21:02;;;;;;;0.88;0.70;;;;;;;;;;5081428;28;20024;-75
2022/03/15 13:23:30;;;;;;;0.70;0.70;;;;;;;;;;5071342;28;20056;-74
2022/03/15 13:26:05;;;;;;;1.08;0.65;;;;;;;;;;5077871;28;20043;-73
2022/03/15 13:28:34;;;;;;;0.93;0.80;;;;;;;;;;5075229;28;20365;-73
2022/03/15 13:31:05;;;;;;;1.10;0.85;;;;;;;;;;5073319;28;20074;-72
2022/03/15 13:33:31;;;;;;;2.28;0.77;;;;;;;;;;5072513;28;20607;-73
2022/03/15 13:36:01;;;;;;;1.92;0.80;;;;;;;;;;5072721;28;20013;-75
2022/03/15 13:38:28;;;;;;;1.70;0.90;;;;;;;;;;5075016;28;20024;-74
2022/03/15 13:40:55;;;;;;;1.17;1.00;;;;;;;;;;5077194;28;20036;-72
2022/03/15 13:43:22;;;;;;;2.58;0.70;;;;;;;;;;5084320;28;20056;-74
2022/03/15 13:45:48;;;;;;;0.98;0.80;;;;;;;;;;5080003;28;20054;-74
2022/03/15 13:48:25;;;;;;;0.73;0.60;;;;;;;;;;5085184;28;20139;-73
2022/03/15 13:50:58;;;;;;;0.85;0.70;;;;;;;;;;5067301;28;20062;-73
2022/03/15 13:53:25;;;;;;;1.38;0.70;;;;;;;;;;5073332;28;20024;-72
2022/03/15 13:55:53;;;;;;;2.95;0.60;;;;;;;;;;5067095;28;20131;-72
2022/03/15 13:58:28;;;;;;;0.88;0.60;;;;;;;;;;5070703;28;20495;-72
2022/03/15 14:01:07;;;;;;;0.70;0.60;;;;;;;;;;5072435;28;20027;-72
2022/03/15 14:03:35;;;;;;;2.95;1.05;;;;;;;;;;5070203;28;20067;-74
2022/03/15 14:06:03;;;;;;;3.97;1.45;;;;;;;;;;5078134;28;20020;-75
2022/03/15 14:08:29;;;;;;;0.75;0.73;;;;;;;;;;5072704;28;20423;-74
2022/03/15 14:10:55;;;;;;;0.75;0.68;;;;;;;;;;5070768;28;20037;-75
2022/03/15 14:13:23;;;;;;;1.85;1.30;;;;;;;;;;5074756;28;20031;-73
2022/03/15 14:15:53;;;;;;;2.28;0.80;;;;;;;;;;5070000;28;20021;-73
2022/03/15 14:18:25;;;;;;;1.33;0.90;;;;;;;;;;5067163;28;20028;-73
2022/03/15 14:20:51;;;;;;;0.98;0.80;;;;;;;;;;5067597;28;20020;-74
2022/03/15 14:23:18;;;;;;;1.38;0.95;;;;;;;;;;5072736;28;20434;-72
2022/03/15 14:25:45;;;;;;;1.70;0.90;;;;;;;;;;5070787;28;20495;-72
2022/03/15 14:28:12;;;;;;;1.65;0.90;;;;;;;;;;5066449;28;20563;-71
2022/03/15 14:30:38;;;;;;;1.45;0.88;;;;;;;;;;5067898;28;20159;-74
2022/03/15 14:33:12;;;;;;;0.88;0.80;;;;;;;;;;5066762;28;20055;-73
2022/03/15 14:35:39;;;;;;;1.10;0.90;;;;;;;;;;5068942;28;20060;-72
2022/03/15 14:38:06;;;;;;;2.45;1.05;;;;;;;;;;5074038;28;20031;-74
2022/03/15 14:40:38;;;;;;;1.10;1.00;;;;;;;;;;5075750;28;20087;-77
2022/03/15 14:43:06;;;;;;;2.65;1.40;;;;;;;;;;5078912;28;20057;-73
2022/03/15 14:45:35;;;;;;;2.50;1.38;;;;;;;;;;5080306;28;20017;-75
2022/03/15 14:48:01;;;;;;;1.58;1.02;;;;;;;;;;5072426;28;20069;-73
2022/03/15 14:50:30;;;;;;;1.40;1.00;;;;;;;;;;5075701;28;20452;-77
2022/03/15 14:52:56;;;;;;;1.15;0.93;;;;;;;;;;5072185;28;20047;-76
2022/03/15 14:55:24;;;;;;;1.30;0.90;;;;;;;;;;5061297;28;20032;-71
2022/03/15 14:57:51;;;;;;;1.60;0.80;;;;;;;;;;5076368;28;20024;-73
2022/03/15 15:00:18;;;;;;;1.50;1.33;;;;;;;;;;5076738;28;20032;-72
2022/03/15 15:02:45;;;;;;;1.55;1.00;;;;;;;;;;5071750;28;20056;-72
2022/03/15 15:05:12;;;;;;;1.60;1.05;;;;;;;;;;5073193;28;20067;-72
2022/03/15 15:07:41;;;;;;;0.98;0.80;;;;;;;;;;5073539;28;20028;-72
2022/03/15 15:10:09;;;;;;;0.90;0.77;;;;;;;;;;5072170;28;20683;-74
2022/03/15 15:12:35;;;;;;;1.30;0.82;;;;;;;;;;5072696;28;20564;-76
2022/03/15 15:15:02;;;;;;;1.25;1.02;;;;;;;;;;5068237;28;20094;-72
2022/03/15 15:17:30;;;;;;;1.63;0.90;;;;;;;;;;5068355;28;20021;-75
2022/03/15 15:19:56;;;;;;;2.95;0.80;;;;;;;;;;5078100;28;20024;-77
2022/03/15 15:22:23;;;;;;;4.32;0.80;;;;;;;;;;5084565;28;20464;-76
2022/03/15 15:24:50;;;;;;;1.92;0.70;;;;;;;;;;5071470;28;20388;-75
2022/03/15 15:27:17;;;;;;;2.33;0.88;;;;;;;;;;5087250;28;20504;-73
2022/03/15 15:29:44;;;;;;;3.90;1.02;;;;;;;;;;5084953;28;20135;-72
2022/03/15 15:32:14;;;;;;;7.47;3.35;;;;;;;;;;5071843;28;20028;-73
2022/03/15 15:34:44;;;;;;;2.85;1.23;;;;;;;;;;5074265;28;20131;-72
2022/03/15 15:37:12;;;;;;;1.13;1.00;;;;;;;;;;5070518;28;20764;-71
2022/03/15 15:39:39;;;;;;;1.48;1.23;;;;;;;;;;5075198;28;20043;-71
2022/03/15 15:42:08;;;;;;;3.60;1.30;;;;;;;;;;5068611;28;20084;-71
2022/03/15 15:44:35;;;;;;;2.30;1.48;;;;;;;;;;5082183;28;20059;-70
2022/03/15 15:47:02;;;;;;;1.75;1.40;;;;;;;;;;5069966;28;20483;-74
2022/03/15 15:49:28;;;;;;;3.65;2.03;;;;;;;;;;5074986;28;20036;-71
2022/03/15 15:51:57;;;;;;;3.00;2.70;;;;;;;;;;5077031;28;20031;-78
2022/03/15 15:54:24;;;;;;;4.68;3.20;;;;;;;;;;5081759;28;20027;-71
2022/03/15 15:56:51;;;;;;;6.43;4.03;;;;;;;;;;5086108;28;20073;-71
2022/03/15 15:59:19;;;;;;;8.90;6.30;;;;;;;;;;5070931;28;20069;-71
2022/03/15 16:01:49;;;;;;;10.45;7.20;;;;;;;;;;5069787;28;20078;-75
2022/03/15 16:04:16;;;;;;;9.90;7.38;;;;;;;;;;5068770;28;20025;-70
2022/03/15 16:06:44;;;;;;;12.30;8.25;;;;;;;;;;5072149;28;20027;-70
2022/03/15 16:09:10;;;;;;;13.85;8.75;;;;;;;;;;5068206;28;20052;-76
2022/03/15 16:11:36;;;;;;;13.70;8.88;;;;;;;;;;5073836;28;20107;-73
2022/03/15 16:14:02;;;;;;;11.52;8.20;;;;;;;;;;5067633;28;20401;-72